Time;durP1;ratioP1;P1;durP2;ratioP2;P2;SDS_P1;SDS_P2;PMS_P1;PMS_P2;Temp;Humidity;BMP_temperature;BMP_pressure;BME280_temperature;BME280_humidity;BME280_pressure;Samples;Min_cycle;Max_cycle;Signal;HPM_P1;HPM_P2
2022/03/13 00:00:23;;;;;;;;;;;8.50;98.90;;;;;;5091097;28;19912;-73
2022/03/13 00:02:52;;;;;;;;;;;8.50;98.80;;;;;;5090980;28;19908;-72
2022/03/13 00:05:18;;;;;;;;;;;8.60;98.90;;;;;;5091527;28;19912;-73
2022/03/13 00:07:44;;;;;;;;;;;8.70;98.80;;;;;;5091511;28;19909;-73
2022/03/13 00:10:10;;;;;;;;;;;8.70;98.70;;;;;;5091523;28;19972;-72
2022/03/13 00:12:35;;;;;;;;;;;8.70;98.60;;;;;;5091533;28;19916;-73
2022/03/13 00:15:03;;;;;;;;;;;8.60;98.60;;;;;;5089948;28;20023;-73
2022/03/13 00:17:29;;;;;;;;;;;8.60;98.70;;;;;;5091384;28;19953;-73
2022/03/13 00:19:56;;;;;;;;;;;8.60;98.70;;;;;;5091490;28;19992;-73
2022/03/13 00:22:22;;;;;;;;;;;8.60;98.80;;;;;;5091755;28;19944;-72
2022/03/13 00:24:48;;;;;;;;;;;8.50;98.90;;;;;;5091489;28;20017;-73
2022/03/13 00:27:13;;;;;;;;;;;8.50;98.80;;;;;;5091268;28;20130;-73
2022/03/13 00:29:41;;;;;;;;;;;8.40;98.80;;;;;;5091329;28;20403;-73
2022/03/13 00:32:07;;;;;;;;;;;8.40;98.90;;;;;;5091227;28;20354;-73
2022/03/13 00:34:33;;;;;;;;;;;8.40;98.90;;;;;;5091036;28;19923;-73
2022/03/13 00:36:59;;;;;;;;;;;8.50;99.20;;;;;;5090623;28;19924;-73
2022/03/13 00:39:24;;;;;;;;;;;8.50;99.00;;;;;;5090932;28;20014;-72
2022/03/13 00:41:50;;;;;;;;;;;8.60;98.90;;;;;;5091005;28;19999;-73
2022/03/13 00:44:15;;;;;;;;;;;8.60;98.90;;;;;;5091422;28;20027;-73
2022/03/13 00:46:41;;;;;;;;;;;8.70;98.80;;;;;;5090878;28;19923;-73
2022/03/13 00:49:07;;;;;;;;;;;8.70;98.80;;;;;;5090894;28;20423;-73
2022/03/13 00:51:33;;;;;;;;;;;8.80;98.90;;;;;;5091066;28;19939;-73
2022/03/13 00:53:58;;;;;;;;;;;8.90;98.80;;;;;;5090750;28;19982;-73
2022/03/13 00:56:24;;;;;;;;;;;8.90;98.60;;;;;;5090581;28;19934;-73
2022/03/13 00:58:50;;;;;;;;;;;8.90;98.50;;;;;;5090655;28;19952;-73
2022/03/13 01:01:16;;;;;;;;;;;8.80;98.60;;;;;;5090709;28;20409;-73
2022/03/13 01:03:41;;;;;;;;;;;8.70;98.70;;;;;;5090384;28;20453;-73
2022/03/13 01:06:08;;;;;;;;;;;8.60;98.90;;;;;;5089826;28;19918;-73
2022/03/13 01:08:34;;;;;;;;;;;8.70;99.00;;;;;;5088722;28;20002;-72
2022/03/13 01:11:00;;;;;;;;;;;8.70;98.90;;;;;;5090128;28;19912;-73
2022/03/13 01:13:26;;;;;;;;;;;8.70;98.90;;;;;;5089818;28;20450;-73
2022/03/13 01:15:58;;;;;;;;;;;8.80;98.90;;;;;;5089996;28;19955;-73
2022/03/13 01:18:24;;;;;;;;;;;8.90;98.90;;;;;;5089355;28;19931;-73
2022/03/13 01:20:49;;;;;;;;;;;9.00;98.80;;;;;;5089778;28;20315;-73
2022/03/13 01:23:15;;;;;;;;;;;9.10;98.60;;;;;;5089780;28;19978;-73
2022/03/13 01:25:41;;;;;;;;;;;9.20;98.50;;;;;;5089656;28;19913;-73
2022/03/13 01:28:07;;;;;;;;;;;9.20;98.50;;;;;;5089395;28;19915;-73
2022/03/13 01:30:32;;;;;;;;;;;9.20;98.50;;;;;;5089260;28;20350;-75
2022/03/13 01:32:58;;;;;;;;;;;9.20;98.40;;;;;;5088325;28;19920;-74
2022/03/13 01:35:24;;;;;;;;;;;9.20;98.30;;;;;;5089614;28;19912;-73
2022/03/13 01:37:51;;;;;;;;;;;9.10;98.30;;;;;;5089608;28;19928;-73
2022/03/13 01:40:19;;;;;;;;;;;9.10;98.40;;;;;;5089948;28;19993;-73
2022/03/13 01:42:45;;;;;;;;;;;9.10;98.40;;;;;;5090281;28;19908;-74
2022/03/13 01:45:12;;;;;;;;;;;9.10;98.30;;;;;;5089857;28;20288;-73
2022/03/13 01:47:38;;;;;;;;;;;9.00;98.20;;;;;;5089640;28;19920;-73
2022/03/13 01:50:05;;;;;;;;;;;9.00;98.20;;;;;;5089716;28;20255;-73
2022/03/13 01:52:32;;;;;;;;;;;9.00;98.10;;;;;;5089629;28;20221;-73
2022/03/13 01:54:57;;;;;;;;;;;9.00;98.10;;;;;;5089514;28;19943;-73
2022/03/13 01:57:23;;;;;;;;;;;8.90;98.10;;;;;;5089550;28;19954;-73
2022/03/13 01:59:51;;;;;;;;;;;8.90;98.20;;;;;;5089785;28;20434;-73
2022/03/13 02:02:17;;;;;;;;;;;9.00;98.20;;;;;;5090148;28;20269;-73
2022/03/13 02:04:43;;;;;;;;;;;9.00;98.30;;;;;;5089994;28;19912;-73
2022/03/13 02:07:09;;;;;;;;;;;9.00;98.20;;;;;;5089560;28;20372;-73
2022/03/13 02:09:34;;;;;;;;;;;9.00;98.00;;;;;;5089415;28;19916;-73
2022/03/13 02:12:01;;;;;;;;;;;8.90;98.10;;;;;;5089419;28;19916;-74
2022/03/13 02:14:27;;;;;;;;;;;8.90;98.10;;;;;;5089469;28;19919;-73
2022/03/13 02:16:53;;;;;;;;;;;8.90;98.00;;;;;;5088332;28;19923;-73
2022/03/13 02:19:19;;;;;;;;;;;8.90;97.90;;;;;;5089088;28;20031;-73
2022/03/13 02:21:48;;;;;;;;;;;9.00;97.80;;;;;;5089217;28;20370;-73
2022/03/13 02:24:17;;;;;;;;;;;9.00;97.60;;;;;;5089162;28;19909;-73
2022/03/13 02:26:43;;;;;;;;;;;9.00;97.50;;;;;;5089099;28;20275;-73
2022/03/13 02:29:14;;;;;;;;;;;9.00;97.40;;;;;;5089080;28;20255;-73
2022/03/13 02:31:40;;;;;;;;;;;9.00;97.40;;;;;;5089063;28;20015;-73
2022/03/13 02:34:09;;;;;;;;;;;9.10;97.40;;;;;;5088917;28;20255;-73
2022/03/13 02:36:37;;;;;;;;;;;9.10;97.30;;;;;;5088667;28;19924;-73
2022/03/13 02:39:04;;;;;;;;;;;9.20;97.30;;;;;;5089381;28;19912;-73
2022/03/13 02:41:30;;;;;;;;;;;9.20;97.20;;;;;;5089342;28;19994;-73
2022/03/13 02:43:56;;;;;;;;;;;9.00;97.20;;;;;;5088713;28;20018;-73
2022/03/13 02:46:22;;;;;;;;;;;9.00;97.40;;;;;;5088736;28;19919;-73
2022/03/13 02:48:48;;;;;;;;;;;8.90;97.60;;;;;;5088716;28;19916;-74
2022/03/13 02:51:14;;;;;;;;;;;8.80;97.80;;;;;;5088934;28;20258;-74
2022/03/13 02:53:40;;;;;;;;;;;8.80;97.70;;;;;;5088775;28;19908;-74
2022/03/13 02:56:06;;;;;;;;;;;8.70;97.70;;;;;;5088623;28;19912;-73
2022/03/13 02:58:32;;;;;;;;;;;8.70;97.80;;;;;;5088316;28;20006;-73
2022/03/13 03:00:57;;;;;;;;;;;8.70;97.80;;;;;;5088476;28;19944;-73
2022/03/13 03:03:23;;;;;;;;;;;8.80;97.90;;;;;;5088391;28;19990;-73
2022/03/13 03:05:49;;;;;;;;;;;8.90;97.80;;;;;;5088379;28;19921;-73
2022/03/13 03:08:15;;;;;;;;;;;9.00;97.70;;;;;;5088347;28;19912;-73
2022/03/13 03:10:41;;;;;;;;;;;9.00;97.60;;;;;;5086978;28;19916;-73
2022/03/13 03:13:10;;;;;;;;;;;9.00;97.50;;;;;;5088328;28;19958;-73
2022/03/13 03:15:36;;;;;;;;;;;9.00;97.40;;;;;;5088389;28;19966;-73
2022/03/13 03:18:03;;;;;;;;;;;9.00;97.50;;;;;;5088340;28;20362;-73
2022/03/13 03:20:28;;;;;;;;;;;9.10;97.40;;;;;;5088301;28;19908;-73
2022/03/13 03:22:54;;;;;;;;;;;9.10;97.30;;;;;;5088236;28;19927;-73
2022/03/13 03:25:22;;;;;;;;;;;9.20;97.20;;;;;;5088308;28;19955;-73
2022/03/13 03:27:48;;;;;;;;;;;9.20;97.10;;;;;;5088112;28;19920;-74
2022/03/13 03:30:13;;;;;;;;;;;9.20;97.10;;;;;;5087859;28;19912;-74
2022/03/13 03:32:39;;;;;;;;;;;9.10;97.10;;;;;;5088154;28;19919;-73
2022/03/13 03:35:05;;;;;;;;;;;9.20;97.10;;;;;;5086762;28;19912;-73
2022/03/13 03:37:33;;;;;;;;;;;9.20;97.10;;;;;;5087922;28;20280;-73
2022/03/13 03:39:59;;;;;;;;;;;9.20;97.10;;;;;;5087073;28;19916;-73
2022/03/13 03:42:25;;;;;;;;;;;9.30;97.10;;;;;;5087043;28;19920;-73
2022/03/13 03:44:50;;;;;;;;;;;9.30;97.10;;;;;;5088121;28;19912;-73
2022/03/13 03:47:16;;;;;;;;;;;9.20;97.00;;;;;;5088066;28;19943;-74
2022/03/13 03:49:42;;;;;;;;;;;9.20;97.00;;;;;;5087740;28;19937;-73
2022/03/13 03:52:07;;;;;;;;;;;9.20;97.10;;;;;;5086321;28;19926;-74
2022/03/13 03:54:33;;;;;;;;;;;9.20;97.00;;;;;;5087587;28;19909;-74
2022/03/13 03:56:59;;;;;;;;;;;9.20;97.00;;;;;;5087609;28;19912;-73
2022/03/13 03:59:24;;;;;;;;;;;9.20;96.90;;;;;;5087738;28;19920;-73
2022/03/13 04:01:50;;;;;;;;;;;9.10;96.90;;;;;;5087502;28;19985;-73
2022/03/13 04:04:16;;;;;;;;;;;9.10;97.10;;;;;;5086299;28;19937;-73
2022/03/13 04:06:42;;;;;;;;;;;9.10;97.20;;;;;;5087446;28;20308;-74
2022/03/13 04:09:08;;;;;;;;;;;9.20;97.20;;;;;;5088025;28;19916;-73
2022/03/13 04:11:34;;;;;;;;;;;9.10;97.20;;;;;;5087474;28;19920;-73
2022/03/13 04:14:00;;;;;;;;;;;9.00;97.20;;;;;;5087258;28;19923;-73
2022/03/13 04:16:25;;;;;;;;;;;8.90;97.50;;;;;;5087201;28;19908;-73
2022/03/13 04:18:51;;;;;;;;;;;8.90;97.70;;;;;;5087140;28;19961;-73
2022/03/13 04:21:17;;;;;;;;;;;8.90;97.90;;;;;;5087232;28;19915;-73
2022/03/13 04:23:43;;;;;;;;;;;8.90;97.90;;;;;;5087438;28;19912;-73
2022/03/13 04:26:09;;;;;;;;;;;8.90;97.80;;;;;;5087517;28;19908;-73
2022/03/13 04:28:35;;;;;;;;;;;8.90;97.70;;;;;;5087644;28;20359;-73
2022/03/13 04:31:00;;;;;;;;;;;9.00;97.50;;;;;;5087457;28;19916;-73
2022/03/13 04:33:33;;;;;;;;;;;9.10;97.40;;;;;;5087628;28;19914;-73
2022/03/13 04:36:00;;;;;;;;;;;9.10;97.10;;;;;;5087306;28;19977;-73
2022/03/13 04:38:27;;;;;;;;;;;9.20;97.00;;;;;;5087338;28;20056;-73
2022/03/13 04:40:56;;;;;;;;;;;9.30;96.80;;;;;;5088863;28;20106;-74
2022/03/13 04:43:22;;;;;;;;;;;9.30;96.50;;;;;;5091168;28;20015;-73
2022/03/13 04:45:48;;;;;;;;;;;9.40;96.30;;;;;;5091220;28;19923;-73
2022/03/13 04:48:15;;;;;;;;;;;9.40;96.20;;;;;;5091115;28;19934;-73
2022/03/13 04:50:41;;;;;;;;;;;9.40;96.10;;;;;;5091167;28;19969;-74
2022/03/13 04:53:06;;;;;;;;;;;9.40;96.00;;;;;;5090885;28;20271;-73
2022/03/13 04:55:32;;;;;;;;;;;9.40;96.00;;;;;;5090919;28;20373;-73
2022/03/13 04:57:57;;;;;;;;;;;9.40;96.00;;;;;;5089380;28;19968;-73
2022/03/13 05:00:27;;;;;;;;;;;9.40;95.90;;;;;;5090826;28;19919;-73
2022/03/13 05:02:53;;;;;;;;;;;9.40;95.90;;;;;;5090744;28;20363;-73
2022/03/13 05:05:19;;;;;;;;;;;9.40;95.90;;;;;;5090744;28;19915;-73
2022/03/13 05:07:45;;;;;;;;;;;9.30;95.90;;;;;;5090549;28;20210;-73
2022/03/13 05:10:10;;;;;;;;;;;9.30;95.80;;;;;;5090710;28;20384;-73
2022/03/13 05:12:36;;;;;;;;;;;9.30;95.70;;;;;;5090456;28;19907;-73
2022/03/13 05:15:02;;;;;;;;;;;9.10;96.00;;;;;;5090499;28;19916;-73
2022/03/13 05:17:28;;;;;;;;;;;9.00;96.20;;;;;;5090389;28;20014;-73
2022/03/13 05:19:53;;;;;;;;;;;8.90;96.60;;;;;;5090444;28;19908;-73
2022/03/13 05:22:19;;;;;;;;;;;8.80;97.10;;;;;;5090431;28;19916;-73
2022/03/13 05:24:46;;;;;;;;;;;8.60;97.20;;;;;;5090351;28;19912;-73
2022/03/13 05:27:11;;;;;;;;;;;8.50;97.70;;;;;;5090341;28;19927;-74
2022/03/13 05:29:37;;;;;;;;;;;8.50;98.00;;;;;;5090419;28;19939;-73
2022/03/13 05:32:02;;;;;;;;;;;8.50;98.20;;;;;;5088854;28;19969;-73
2022/03/13 05:34:28;;;;;;;;;;;8.50;98.30;;;;;;5090262;28;19912;-73
2022/03/13 05:36:54;;;;;;;;;;;8.50;98.40;;;;;;5089874;28;19931;-73
2022/03/13 05:39:21;;;;;;;;;;;8.60;98.60;;;;;;5089565;28;20468;-73
2022/03/13 05:41:48;;;;;;;;;;;8.60;98.80;;;;;;5088759;28;19920;-72
2022/03/13 05:44:16;;;;;;;;;;;8.60;99.00;;;;;;5089982;28;19916;-73
2022/03/13 05:46:42;;;;;;;;;;;8.50;98.90;;;;;;5089938;28;19915;-73
2022/03/13 05:49:08;;;;;;;;;;;8.50;99.10;;;;;;5089829;28;19908;-74
2022/03/13 05:51:36;;;;;;;;;;;8.40;99.10;;;;;;5089630;28;19922;-74
2022/03/13 05:54:02;;;;;;;;;;;8.40;99.40;;;;;;5089739;28;19908;-74
2022/03/13 05:56:27;;;;;;;;;;;8.30;99.40;;;;;;5089769;28;19916;-73
2022/03/13 05:58:53;;;;;;;;;;;8.20;99.50;;;;;;5089745;28;20427;-72
2022/03/13 06:01:19;;;;;;;;;;;8.20;99.60;;;;;;5089813;28;20015;-73
2022/03/13 06:03:44;;;;;;;;;;;8.10;99.60;;;;;;5089763;28;19926;-73
2022/03/13 06:06:10;;;;;;;;;;;8.10;99.80;;;;;;5089522;28;19991;-73
2022/03/13 06:08:36;;;;;;;;;;;8.10;99.90;;;;;;5089468;28;19958;-73
2022/03/13 06:11:01;;;;;;;;;;;8.10;99.90;;;;;;5089342;28;19916;-74
2022/03/13 06:13:27;;;;;;;;;;;8.20;99.90;;;;;;5089522;28;20266;-73
2022/03/13 06:15:53;;;;;;;;;;;8.30;99.90;;;;;;5089360;28;19908;-73
2022/03/13 06:18:18;;;;;;;;;;;8.30;99.90;;;;;;5089119;28;19919;-73
2022/03/13 06:20:44;;;;;;;;;;;8.30;99.90;;;;;;5087906;28;20274;-72
2022/03/13 06:23:10;;;;;;;;;;;8.40;99.90;;;;;;5089308;28;19912;-73
2022/03/13 06:25:36;;;;;;;;;;;8.50;99.90;;;;;;5087826;28;19920;-73
2022/03/13 06:28:01;;;;;;;;;;;8.50;99.90;;;;;;5089143;28;19957;-73
2022/03/13 06:30:28;;;;;;;;;;;8.50;99.90;;;;;;5089008;28;19924;-72
2022/03/13 06:32:55;;;;;;;;;;;8.50;99.90;;;;;;5088971;28;20076;-73
2022/03/13 06:35:21;;;;;;;;;;;8.60;99.90;;;;;;5088992;28;19908;-73
2022/03/13 06:37:49;;;;;;;;;;;8.60;99.90;;;;;;5088692;28;19924;-73
2022/03/13 06:40:18;;;;;;;;;;;8.60;99.90;;;;;;5088944;28;20008;-73
2022/03/13 06:42:44;;;;;;;;;;;8.70;99.90;;;;;;5088964;28;19916;-73
2022/03/13 06:45:10;;;;;;;;;;;8.70;99.90;;;;;;5088841;28;19908;-73
2022/03/13 06:47:39;;;;;;;;;;;8.60;99.90;;;;;;5088693;28;19919;-73
2022/03/13 06:50:05;;;;;;;;;;;8.60;99.90;;;;;;5088766;28;19907;-73
2022/03/13 06:52:30;;;;;;;;;;;8.60;99.90;;;;;;5088616;28;19918;-73
2022/03/13 06:54:56;;;;;;;;;;;8.70;99.90;;;;;;5088624;28;19916;-73
2022/03/13 06:57:21;;;;;;;;;;;8.70;99.90;;;;;;5087327;28;19958;-73
2022/03/13 06:59:47;;;;;;;;;;;8.70;99.90;;;;;;5088600;28;20516;-74
2022/03/13 07:02:13;;;;;;;;;;;8.70;99.90;;;;;;5088425;28;20404;-73
2022/03/13 07:04:39;;;;;;;;;;;8.70;99.90;;;;;;5088609;28;20003;-73
2022/03/13 07:07:05;;;;;;;;;;;8.80;99.90;;;;;;5088385;28;20375;-73
2022/03/13 07:09:30;;;;;;;;;;;8.80;99.90;;;;;;5088669;28;19909;-73
2022/03/13 07:11:56;;;;;;;;;;;8.80;99.90;;;;;;5086978;28;20278;-73
2022/03/13 07:14:22;;;;;;;;;;;8.90;99.90;;;;;;5088468;28;19908;-73
2022/03/13 07:16:48;;;;;;;;;;;8.90;99.90;;;;;;5088329;28;20428;-73
2022/03/13 07:19:13;;;;;;;;;;;8.90;99.90;;;;;;5088992;28;19912;-73
2022/03/13 07:21:39;;;;;;;;;;;8.90;99.90;;;;;;5088297;28;20346;-74
2022/03/13 07:24:05;;;;;;;;;;;8.90;99.90;;;;;;5086869;28;19919;-73
2022/03/13 07:26:31;;;;;;;;;;;8.90;99.90;;;;;;5088235;28;19908;-73
2022/03/13 07:28:56;;;;;;;;;;;8.90;99.90;;;;;;5088153;28;20294;-74
2022/03/13 07:31:22;;;;;;;;;;;8.90;99.90;;;;;;5088013;28;19916;-73
2022/03/13 07:33:48;;;;;;;;;;;9.00;99.90;;;;;;5088055;28;20544;-73
2022/03/13 07:36:14;;;;;;;;;;;9.00;99.90;;;;;;5087933;28;19927;-73
2022/03/13 07:38:39;;;;;;;;;;;9.00;99.90;;;;;;5088043;28;20376;-73
2022/03/13 07:41:05;;;;;;;;;;;9.10;99.90;;;;;;5088050;28;19913;-73
2022/03/13 07:43:31;;;;;;;;;;;9.20;99.90;;;;;;5088077;28;19912;-73
2022/03/13 07:45:57;;;;;;;;;;;9.20;99.70;;;;;;5088061;28;19916;-74
2022/03/13 07:48:23;;;;;;;;;;;9.20;99.60;;;;;;5087942;28;20258;-73
2022/03/13 07:50:48;;;;;;;;;;;9.20;99.60;;;;;;5087741;28;20300;-73
2022/03/13 07:53:15;;;;;;;;;;;9.20;99.60;;;;;;5087971;28;19974;-73
2022/03/13 07:55:41;;;;;;;;;;;9.20;99.60;;;;;;5087839;28;19908;-73
2022/03/13 07:58:07;;;;;;;;;;;9.20;99.60;;;;;;5087895;28;19912;-73
2022/03/13 08:00:33;;;;;;;;;;;9.30;99.70;;;;;;5087537;28;19919;-73
2022/03/13 08:02:58;;;;;;;;;;;9.40;99.90;;;;;;5087760;28;19961;-73
2022/03/13 08:05:24;;;;;;;;;;;9.80;99.90;;;;;;5087790;28;19916;-73
2022/03/13 08:07:50;;;;;;;;;;;10.20;99.90;;;;;;5087786;28;19908;-73
2022/03/13 08:10:20;;;;;;;;;;;10.70;99.90;;;;;;5087648;28;19919;-74
2022/03/13 08:12:47;;;;;;;;;;;10.90;99.40;;;;;;5087725;28;19935;-73
2022/03/13 08:15:12;;;;;;;;;;;10.90;99.30;;;;;;5088066;28;19908;-73
2022/03/13 08:17:38;;;;;;;;;;;10.90;99.10;;;;;;5091536;28;19919;-73
2022/03/13 08:20:04;;;;;;;;;;;10.90;99.10;;;;;;5090306;28;20409;-73
2022/03/13 08:22:30;;;;;;;;;;;10.80;99.00;;;;;;5091512;28;19908;-73
2022/03/13 08:24:56;;;;;;;;;;;10.70;98.90;;;;;;5090116;28;19927;-73
2022/03/13 08:27:21;;;;;;;;;;;10.60;98.90;;;;;;5091237;28;19912;-73
2022/03/13 08:29:47;;;;;;;;;;;10.50;99.00;;;;;;5091011;28;20011;-73
2022/03/13 08:32:13;;;;;;;;;;;10.40;99.10;;;;;;5091144;28;20294;-73
2022/03/13 08:34:39;;;;;;;;;;;10.40;99.30;;;;;;5091203;28;19931;-73
2022/03/13 08:37:05;;;;;;;;;;;10.50;99.40;;;;;;5090971;28;20031;-73
2022/03/13 08:39:31;;;;;;;;;;;10.50;99.30;;;;;;5091172;28;19947;-73
2022/03/13 08:41:56;;;;;;;;;;;10.50;99.30;;;;;;5091159;28;20166;-73
2022/03/13 08:44:22;;;;;;;;;;;10.50;99.20;;;;;;5090999;28;19966;-73
2022/03/13 08:46:48;;;;;;;;;;;10.50;99.20;;;;;;5090700;28;19981;-73
2022/03/13 08:49:14;;;;;;;;;;;10.50;99.40;;;;;;5090745;28;20393;-73
2022/03/13 08:51:40;;;;;;;;;;;10.60;99.50;;;;;;5090907;28;19959;-73
2022/03/13 08:54:06;;;;;;;;;;;10.70;99.50;;;;;;5090679;28;19971;-73
2022/03/13 08:56:31;;;;;;;;;;;10.70;99.10;;;;;;5089303;28;20361;-73
2022/03/13 08:58:57;;;;;;;;;;;10.80;98.90;;;;;;5090513;28;20350;-73
2022/03/13 09:01:24;;;;;;;;;;;10.70;98.80;;;;;;5089837;28;20334;-73
2022/03/13 09:03:50;;;;;;;;;;;10.70;98.80;;;;;;5090408;28;19912;-73
2022/03/13 09:06:16;;;;;;;;;;;10.80;98.80;;;;;;5090553;28;19912;-73
2022/03/13 09:08:41;;;;;;;;;;;10.80;98.90;;;;;;5090394;28;19912;-73
2022/03/13 09:11:08;;;;;;;;;;;10.90;98.90;;;;;;5090386;28;20434;-73
2022/03/13 09:13:35;;;;;;;;;;;11.20;99.70;;;;;;5090138;28;19910;-73
2022/03/13 09:16:01;;;;;;;;;;;12.10;99.90;;;;;;5090267;28;19974;-73
2022/03/13 09:18:26;;;;;;;;;;;13.30;99.90;;;;;;5090128;28;20366;-73
2022/03/13 09:20:52;;;;;;;;;;;14.60;99.90;;;;;;5090213;28;19925;-73
2022/03/13 09:23:17;;;;;;;;;;;15.80;99.90;;;;;;5090160;28;20008;-74
2022/03/13 09:25:43;;;;;;;;;;;16.70;99.50;;;;;;5089798;28;19971;-72
2022/03/13 09:28:09;;;;;;;;;;;17.60;99.40;;;;;;5089093;28;19912;-73
2022/03/13 09:30:35;;;;;;;;;;;18.30;97.50;;;;;;5089393;28;20399;-73
2022/03/13 09:33:01;;;;;;;;;;;18.70;96.10;;;;;;5089728;28;19908;-73
2022/03/13 09:35:27;;;;;;;;;;;19.10;95.60;;;;;;5089770;28;19919;-78
2022/03/13 09:37:53;;;;;;;;;;;19.50;94.90;;;;;;5089824;28;19924;-73
2022/03/13 09:40:19;;;;;;;;;;;19.70;95.50;;;;;;5089754;28;19927;-72
2022/03/13 09:42:45;;;;;;;;;;;20.00;94.30;;;;;;5088271;28;20358;-72
2022/03/13 09:45:11;;;;;;;;;;;20.10;93.70;;;;;;5089640;28;19919;-73
2022/03/13 09:47:37;;;;;;;;;;;20.00;92.80;;;;;;5087879;28;19991;-72
2022/03/13 09:50:04;;;;;;;;;;;20.20;93.00;;;;;;5089280;28;19916;-72
2022/03/13 09:52:33;;;;;;;;;;;20.10;93.80;;;;;;5089336;28;20359;-73
2022/03/13 09:54:59;;;;;;;;;;;19.80;91.80;;;;;;5089140;28;19915;-72
2022/03/13 09:57:25;;;;;;;;;;;19.10;91.90;;;;;;5088800;28;20378;-72
2022/03/13 09:59:51;;;;;;;;;;;18.80;92.60;;;;;;5088738;28;19909;-72
2022/03/13 10:02:17;;;;;;;;;;;18.50;93.20;;;;;;5089023;28;19912;-72
2022/03/13 10:04:42;;;;;;;;;;;18.50;93.70;;;;;;5089276;28;19935;-72
2022/03/13 10:07:10;;;;;;;;;;;18.80;93.90;;;;;;5089254;28;19995;-72
2022/03/13 10:09:37;;;;;;;;;;;19.30;94.10;;;;;;5087601;28;19912;-73
2022/03/13 10:12:08;;;;;;;;;;;19.90;93.10;;;;;;5088612;28;20083;-72
2022/03/13 10:14:34;;;;;;;;;;;20.10;91.60;;;;;;5088930;28;19915;-73
2022/03/13 10:17:00;;;;;;;;;;;19.50;91.20;;;;;;5088951;28;19919;-72
2022/03/13 10:19:27;;;;;;;;;;;18.90;90.80;;;;;;5088597;28;19912;-73
2022/03/13 10:22:01;;;;;;;;;;;18.70;90.20;;;;;;5087413;28;19915;-73
2022/03/13 10:24:27;;;;;;;;;;;18.40;90.00;;;;;;5088685;28;19908;-72
2022/03/13 10:27:09;;;;;;;;;;;18.20;90.20;;;;;;5088365;28;19912;-73
2022/03/13 10:29:35;;;;;;;;;;;18.00;89.30;;;;;;5088599;28;19916;-73
2022/03/13 10:32:00;;;;;;;;;;;17.40;87.80;;;;;;5088349;28;19961;-72
2022/03/13 10:34:26;;;;;;;;;;;16.70;86.60;;;;;;5088575;28;19919;-72
2022/03/13 10:36:52;;;;;;;;;;;16.10;85.90;;;;;;5088163;28;19927;-73
2022/03/13 10:39:18;;;;;;;;;;;15.60;86.10;;;;;;5087566;28;19955;-72
2022/03/13 10:41:47;;;;;;;;;;;15.30;86.70;;;;;;5088644;28;20347;-72
2022/03/13 10:44:14;;;;;;;;;;;15.20;88.50;;;;;;5088203;28;19912;-72
2022/03/13 10:46:40;;;;;;;;;;;15.40;88.90;;;;;;5088003;28;19930;-72
2022/03/13 10:49:09;;;;;;;;;;;15.40;88.40;;;;;;5088199;28;19912;-72
2022/03/13 10:51:45;;;;;;;;;;;15.30;87.80;;;;;;5088352;28;19966;-72
2022/03/13 10:54:30;;;;;;;;;;;15.10;86.70;;;;;;5088526;28;19913;-72
2022/03/13 10:57:09;;;;;;;;;;;14.80;87.30;;;;;;5087547;28;19912;-73
2022/03/13 10:59:34;;;;;;;;;;;14.60;87.40;;;;;;5087792;28;19998;-73
2022/03/13 11:02:13;;;;;;;;;;;14.40;88.00;;;;;;5087741;28;20003;-72
2022/03/13 11:04:49;;;;;;;;;;;14.30;88.40;;;;;;5087677;28;20369;-72
2022/03/13 11:07:15;;;;;;;;;;;14.30;88.20;;;;;;5087797;28;19916;-73
2022/03/13 11:09:40;;;;;;;;;;;14.40;88.80;;;;;;5087808;28;19914;-73
2022/03/13 11:12:09;;;;;;;;;;;14.40;88.30;;;;;;5087619;28;20305;-72
2022/03/13 11:14:35;;;;;;;;;;;14.50;88.30;;;;;;5087586;28;19922;-72
2022/03/13 11:17:01;;;;;;;;;;;14.40;88.30;;;;;;5087333;28;19951;-72
2022/03/13 11:19:28;;;;;;;;;;;14.40;88.70;;;;;;5086734;28;19927;-73
2022/03/13 11:21:54;;;;;;;;;;;14.50;88.40;;;;;;5087416;28;19914;-73
2022/03/13 11:24:21;;;;;;;;;;;14.80;89.60;;;;;;5087434;28;19916;-73
2022/03/13 11:26:49;;;;;;;;;;;15.80;89.00;;;;;;5087069;28;20406;-72
2022/03/13 11:29:15;;;;;;;;;;;16.20;86.50;;;;;;5087411;28;20389;-73
2022/03/13 11:31:42;;;;;;;;;;;16.70;87.00;;;;;;5087912;28;19916;-73
2022/03/13 11:34:12;;;;;;;;;;;17.60;86.30;;;;;;5087688;28;20007;-72
2022/03/13 11:36:40;;;;;;;;;;;18.70;84.90;;;;;;5087263;28;19924;-73
2022/03/13 11:39:07;;;;;;;;;;;19.80;83.40;;;;;;5087699;28;19915;-74
2022/03/13 11:41:34;;;;;;;;;;;20.70;82.20;;;;;;5087614;28;20041;-73
2022/03/13 11:44:03;;;;;;;;;;;21.20;78.30;;;;;;5087497;28;20006;-74
2022/03/13 11:46:40;;;;;;;;;;;21.20;75.30;;;;;;5087269;28;19995;-73
2022/03/13 11:49:24;;;;;;;;;;;20.30;73.70;;;;;;5087539;28;19912;-73
2022/03/13 11:51:49;;;;;;;;;;;19.30;72.20;;;;;;5091591;28;19983;-72
2022/03/13 11:54:35;;;;;;;;;;;18.30;72.70;;;;;;5090958;28;19916;-73
2022/03/13 11:57:12;;;;;;;;;;;17.70;74.10;;;;;;5090722;28;20218;-73
2022/03/13 11:59:37;;;;;;;;;;;17.50;75.60;;;;;;5091004;28;19919;-72
2022/03/13 12:02:03;;;;;;;;;;;17.90;76.70;;;;;;5090973;28;19916;-72
2022/03/13 12:04:29;;;;;;;;;;;18.60;76.60;;;;;;5089605;28;19956;-74
2022/03/13 12:06:57;;;;;;;;;;;19.40;75.80;;;;;;5090657;28;19931;-73
2022/03/13 12:09:26;;;;;;;;;;;19.90;73.20;;;;;;5091121;28;19916;-73
2022/03/13 12:12:08;;;;;;;;;;;20.10;72.50;;;;;;5091116;28;19923;-73
2022/03/13 12:14:49;;;;;;;;;;;19.80;69.40;;;;;;5090730;28;19908;-73
2022/03/13 12:17:15;;;;;;;;;;;19.10;69.00;;;;;;5090870;28;19915;-73
2022/03/13 12:19:41;;;;;;;;;;;18.70;69.60;;;;;;5090606;28;19916;-73
2022/03/13 12:22:07;;;;;;;;;;;18.20;69.40;;;;;;5090534;28;20045;-73
2022/03/13 12:24:33;;;;;;;;;;;17.90;69.50;;;;;;5090814;28;19915;-73
2022/03/13 12:27:03;;;;;;;;;;;17.90;69.10;;;;;;5090602;28;20372;-72
2022/03/13 12:29:32;;;;;;;;;;;17.70;68.90;;;;;;5090253;28;19912;-72
2022/03/13 12:31:58;;;;;;;;;;;17.60;69.40;;;;;;5090535;28;19912;-73
2022/03/13 12:34:25;;;;;;;;;;;17.60;69.20;;;;;;5090592;28;20256;-73
2022/03/13 12:36:53;;;;;;;;;;;17.70;69.40;;;;;;5090351;28;20298;-72
2022/03/13 12:39:19;;;;;;;;;;;18.20;69.70;;;;;;5090739;28;20292;-73
2022/03/13 12:41:46;;;;;;;;;;;18.70;69.20;;;;;;5090693;28;19965;-72
2022/03/13 12:44:12;;;;;;;;;;;19.20;67.70;;;;;;5090307;28;19912;-72
2022/03/13 12:46:38;;;;;;;;;;;19.30;66.80;;;;;;5089627;28;20435;-72
2022/03/13 12:49:05;;;;;;;;;;;19.00;65.70;;;;;;5090429;28;19915;-73
2022/03/13 12:51:47;;;;;;;;;;;18.50;64.70;;;;;;5090038;28;19913;-73
2022/03/13 12:54:13;;;;;;;;;;;18.20;65.50;;;;;;5090004;28;20335;-72
2022/03/13 12:56:47;;;;;;;;;;;18.00;65.60;;;;;;5090020;28;19954;-72
2022/03/13 12:59:26;;;;;;;;;;;17.90;65.50;;;;;;5089646;28;19908;-72
2022/03/13 13:02:01;;;;;;;;;;;17.80;65.80;;;;;;5088924;28;19999;-72
2022/03/13 13:04:27;;;;;;;;;;;18.20;66.80;;;;;;5089751;28;19912;-73
2022/03/13 13:06:52;;;;;;;;;;;18.70;68.10;;;;;;5087987;28;20007;-72
2022/03/13 13:09:31;;;;;;;;;;;18.90;67.70;;;;;;5089765;28;19908;-72
2022/03/13 13:11:57;;;;;;;;;;;18.80;66.40;;;;;;5089179;28;19916;-72
2022/03/13 13:14:26;;;;;;;;;;;18.40;65.60;;;;;;5088910;28;19913;-73
2022/03/13 13:16:52;;;;;;;;;;;17.90;65.80;;;;;;5089282;28;19998;-73
2022/03/13 13:19:19;;;;;;;;;;;17.40;65.90;;;;;;5090481;28;20007;-73
2022/03/13 13:21:53;;;;;;;;;;;17.10;66.60;;;;;;5089369;28;19921;-73
2022/03/13 13:24:20;;;;;;;;;;;16.90;66.90;;;;;;5089139;28;19966;-73
2022/03/13 13:26:46;;;;;;;;;;;16.50;66.90;;;;;;5088747;28;19908;-72
2022/03/13 13:29:11;;;;;;;;;;;16.10;67.40;;;;;;5089370;28;20367;-73
2022/03/13 13:31:37;;;;;;;;;;;15.70;68.80;;;;;;5089412;28;19920;-73
2022/03/13 13:34:13;;;;;;;;;;;15.30;69.70;;;;;;5089464;28;19997;-74
2022/03/13 13:36:39;;;;;;;;;;;15.40;71.30;;;;;;5089608;28;20003;-73
2022/03/13 13:39:05;;;;;;;;;;;15.80;71.60;;;;;;5089376;28;20326;-73
2022/03/13 13:41:33;;;;;;;;;;;15.90;70.90;;;;;;5089224;28;19912;-73
2022/03/13 13:43:59;;;;;;;;;;;15.90;71.40;;;;;;5089453;28;20370;-73
2022/03/13 13:46:31;;;;;;;;;;;16.30;71.60;;;;;;5089154;28;19909;-73
2022/03/13 13:48:59;;;;;;;;;;;16.70;71.70;;;;;;5089037;28;20303;-74
2022/03/13 13:51:27;;;;;;;;;;;16.90;70.30;;;;;;5088678;28;19919;-73
2022/03/13 13:53:56;;;;;;;;;;;16.90;69.40;;;;;;5088978;28;19908;-74
2022/03/13 13:56:34;;;;;;;;;;;16.80;69.60;;;;;;5088711;28;20247;-73
2022/03/13 13:59:14;;;;;;;;;;;16.70;69.90;;;;;;5088537;28;19920;-73
2022/03/13 14:01:41;;;;;;;;;;;16.70;69.30;;;;;;5088310;28;20378;-74
2022/03/13 14:04:07;;;;;;;;;;;16.70;69.10;;;;;;5088600;28;19942;-73
2022/03/13 14:06:34;;;;;;;;;;;16.50;68.60;;;;;;5087073;28;20371;-73
2022/03/13 14:09:00;;;;;;;;;;;16.30;68.40;;;;;;5088678;28;19927;-73
2022/03/13 14:11:26;;;;;;;;;;;15.90;68.60;;;;;;5088849;28;19912;-74
2022/03/13 14:13:52;;;;;;;;;;;15.50;68.60;;;;;;5087707;28;19923;-73
2022/03/13 14:16:19;;;;;;;;;;;15.00;69.30;;;;;;5088724;28;20005;-73
2022/03/13 14:18:46;;;;;;;;;;;14.60;70.60;;;;;;5087148;28;19919;-73
2022/03/13 14:21:12;;;;;;;;;;;14.40;71.70;;;;;;5088601;28;20279;-73